createdAt,value
2019-01-13T00:01:31.740Z,-1.99
2019-01-13T00:03:59.172Z,-1.98
2019-01-13T00:06:26.746Z,-2.09
2019-01-13T00:08:54.394Z,-1.80
2019-01-13T00:11:22.022Z,-1.92
2019-01-13T00:13:49.696Z,-2.10
2019-01-13T00:16:17.255Z,-2.17
2019-01-13T00:18:44.744Z,-2.23
2019-01-13T00:21:12.499Z,-2.18
2019-01-13T00:23:40.142Z,-1.94
2019-01-13T00:26:07.633Z,-1.50
2019-01-13T00:28:35.135Z,-1.86
2019-01-13T00:31:03.473Z,-1.57
2019-01-13T00:33:30.993Z,-1.57
2019-01-13T00:35:58.475Z,-1.54
2019-01-13T00:38:26.006Z,-1.43
2019-01-13T00:40:53.547Z,-1.24
2019-01-13T00:43:21.072Z,-1.21
2019-01-13T00:45:48.747Z,-1.50
2019-01-13T00:48:16.263Z,-1.48
2019-01-13T00:50:43.834Z,-1.53
2019-01-13T00:53:11.293Z,-1.52
2019-01-13T00:55:38.827Z,-1.61
2019-01-13T00:58:06.497Z,-1.71
2019-01-13T01:00:34.173Z,-1.49
2019-01-13T01:03:01.670Z,-1.49
2019-01-13T01:05:29.279Z,-1.44
2019-01-13T01:07:56.671Z,-1.37
2019-01-13T01:10:24.310Z,-1.46
2019-01-13T01:12:52.033Z,-1.26
2019-01-13T01:15:19.843Z,-0.94
2019-01-13T01:17:47.364Z,-0.96
2019-01-13T01:20:15.104Z,-0.89
2019-01-13T01:22:42.766Z,-0.98
2019-01-13T01:25:11.667Z,-1.04
2019-01-13T01:27:39.211Z,-0.98
2019-01-13T01:30:13.217Z,-0.83
2019-01-13T01:32:40.817Z,-0.62
2019-01-13T01:35:08.724Z,-0.36
2019-01-13T01:37:36.215Z,-0.47
2019-01-13T01:40:06.975Z,-0.51
2019-01-13T01:42:34.471Z,-0.32
2019-01-13T01:45:02.229Z,-0.12
2019-01-13T01:47:29.745Z,-0.16
2019-01-13T01:49:57.192Z,-0.10
2019-01-13T01:52:24.800Z,-0.53
2019-01-13T01:54:52.446Z,-0.53
2019-01-13T01:57:20.074Z,-0.58
2019-01-13T01:59:47.571Z,-0.33
2019-01-13T02:02:15.337Z,-0.26
2019-01-13T02:04:42.781Z,0.13
2019-01-13T02:07:10.353Z,0.06
2019-01-13T02:09:37.887Z,0.10
2019-01-13T02:12:05.409Z,-0.14
2019-01-13T02:14:32.971Z,-0.26
2019-01-13T02:17:00.436Z,-0.25
2019-01-13T02:19:27.944Z,-0.46
2019-01-13T02:21:55.441Z,-0.68
2019-01-13T02:24:22.998Z,-0.81
2019-01-13T02:26:50.481Z,-0.86
2019-01-13T02:29:17.964Z,-0.99
2019-01-13T02:31:45.472Z,-1.02
2019-01-13T02:34:12.987Z,-1.36
2019-01-13T02:36:40.558Z,-1.36
2019-01-13T02:39:08.169Z,-1.44
2019-01-13T02:41:35.651Z,-0.84
2019-01-13T02:44:03.596Z,-0.56
2019-01-13T02:46:31.212Z,-0.61
2019-01-13T02:48:58.735Z,-0.26
2019-01-13T02:51:26.322Z,0.14
2019-01-13T02:53:53.835Z,0.12
2019-01-13T02:56:21.684Z,-0.17
2019-01-13T02:58:49.354Z,0.19
2019-01-13T03:01:16.965Z,0.04
2019-01-13T03:03:44.476Z,-0.11
2019-01-13T03:06:12.024Z,-0.24
2019-01-13T03:08:39.607Z,-0.26
2019-01-13T03:11:07.051Z,-0.33
2019-01-13T03:13:34.525Z,-0.39
2019-01-13T03:16:02.067Z,-0.51
2019-01-13T03:18:29.608Z,-0.18
2019-01-13T03:20:57.027Z,-0.26
2019-01-13T03:23:25.227Z,-0.37
2019-01-13T03:25:52.700Z,-0.45
2019-01-13T03:28:20.113Z,-0.46
2019-01-13T03:30:47.577Z,-0.54
2019-01-13T03:33:15.131Z,-0.62
2019-01-13T03:35:43.261Z,-0.69
2019-01-13T03:38:10.847Z,-0.54
2019-01-13T03:40:38.420Z,-0.60
2019-01-13T03:43:06.113Z,-0.37
2019-01-13T03:45:33.796Z,-0.38
2019-01-13T03:48:01.355Z,-0.26
2019-01-13T03:50:29.105Z,-0.23
2019-01-13T03:52:56.650Z,-0.22
2019-01-13T03:55:24.794Z,-0.31
2019-01-13T03:57:52.373Z,-0.36
2019-01-13T04:00:22.372Z,-0.39
2019-01-13T04:02:50.043Z,-0.63
2019-01-13T04:05:17.693Z,-0.71
2019-01-13T04:07:45.227Z,-0.91
2019-01-13T04:10:14.031Z,-0.85
2019-01-13T04:12:41.874Z,-0.97
2019-01-13T04:15:52.478Z,-1.10
2019-01-13T04:18:20.054Z,-1.13
2019-01-13T04:20:47.609Z,-1.26
2019-01-13T04:23:15.098Z,-1.11
2019-01-13T04:25:42.612Z,-1.11
2019-01-13T04:28:10.008Z,-1.06
2019-01-13T04:30:37.528Z,-1.02
2019-01-13T04:33:05.075Z,-1.02
2019-01-13T04:35:32.547Z,-0.85
2019-01-13T04:38:00.008Z,-0.95
2019-01-13T04:40:27.605Z,-0.98
2019-01-13T04:42:55.227Z,-1.03
2019-01-13T04:45:22.822Z,-1.19
2019-01-13T04:47:50.348Z,-1.34
2019-01-13T04:50:17.867Z,-1.46
2019-01-13T04:52:45.369Z,-1.35
2019-01-13T04:55:12.927Z,-1.36
2019-01-13T04:57:40.650Z,-1.20
2019-01-13T05:00:11.910Z,-1.20
2019-01-13T05:02:39.612Z,-1.34
2019-01-13T05:05:07.871Z,-1.36
2019-01-13T05:07:35.516Z,-1.58
2019-01-13T05:10:04.218Z,-1.58
2019-01-13T05:12:31.738Z,-1.53
2019-01-13T05:14:59.133Z,-1.59
2019-01-13T05:17:26.723Z,-1.44
2019-01-13T05:19:54.189Z,-1.39
2019-01-13T05:22:21.727Z,-1.34
2019-01-13T05:24:49.286Z,-1.31
2019-01-13T05:27:16.841Z,-1.27
2019-01-13T05:29:44.349Z,-1.11
2019-01-13T05:32:11.869Z,-1.18
2019-01-13T05:34:39.334Z,-1.26
2019-01-13T05:37:06.807Z,-1.25
2019-01-13T05:39:34.306Z,-1.14
2019-01-13T05:42:01.907Z,-1.21
2019-01-13T05:44:29.421Z,-1.24
2019-01-13T05:46:56.852Z,-1.26
2019-01-13T05:49:24.437Z,-1.06
2019-01-13T05:51:52.263Z,-0.75
2019-01-13T05:54:19.818Z,-0.50
2019-01-13T05:56:47.431Z,-0.58
2019-01-13T05:59:15.000Z,-0.44
2019-01-13T06:01:48.935Z,-0.44
2019-01-13T06:04:11.932Z,-0.49
2019-01-13T06:06:39.447Z,-0.74
2019-01-13T06:09:07.814Z,-0.70
2019-01-13T06:11:35.451Z,-0.79
2019-01-13T06:14:02.951Z,-0.82
2019-01-13T06:16:30.458Z,-0.46
2019-01-13T06:18:57.955Z,-0.46
2019-01-13T06:21:25.405Z,-0.58
2019-01-13T06:23:52.910Z,-0.58
2019-01-13T06:26:20.405Z,-0.64
2019-01-13T06:28:47.977Z,-0.73
2019-01-13T06:31:15.490Z,-0.75
2019-01-13T06:33:42.910Z,-0.68
2019-01-13T06:36:10.462Z,-0.68
2019-01-13T06:38:37.972Z,-0.76
2019-01-13T06:41:05.474Z,-0.68
2019-01-13T06:43:32.975Z,-0.43
2019-01-13T06:46:00.612Z,-0.40
2019-01-13T06:48:28.184Z,-0.34
2019-01-13T06:50:55.816Z,-0.33
2019-01-13T06:53:23.436Z,-0.22
2019-01-13T06:55:50.975Z,-0.16
2019-01-13T06:58:18.507Z,0.01
2019-01-13T07:00:46.135Z,-0.01
2019-01-13T07:03:13.777Z,-0.05
2019-01-13T07:05:41.415Z,-0.10
2019-01-13T07:08:09.178Z,0.02
2019-01-13T07:10:36.772Z,0.24
2019-01-13T07:13:04.316Z,0.47
2019-01-13T07:15:32.003Z,0.30
2019-01-13T07:17:59.457Z,0.19
2019-01-13T07:20:26.959Z,0.15
2019-01-13T07:22:54.483Z,0.03
2019-01-13T07:25:22.024Z,0.19
2019-01-13T07:27:50.498Z,0.06
2019-01-13T07:30:22.798Z,0.25
2019-01-13T07:32:50.510Z,0.20
2019-01-13T07:35:18.014Z,0.13
2019-01-13T07:37:45.493Z,-0.04
2019-01-13T07:40:18.485Z,0.24
2019-01-13T07:42:46.251Z,0.13
2019-01-13T07:45:15.669Z,-0.10
2019-01-13T07:47:43.224Z,0.16
2019-01-13T07:50:13.061Z,0.19
2019-01-13T07:52:40.925Z,0.41
2019-01-13T07:55:11.206Z,0.20
2019-01-13T07:57:38.997Z,0.24
2019-01-13T08:00:11.170Z,0.11
2019-01-13T08:02:38.980Z,-0.18
2019-01-13T08:05:06.859Z,-0.24
2019-01-13T08:07:34.324Z,0.08
2019-01-13T08:10:02.101Z,0.25
2019-01-13T08:12:29.675Z,0.25
2019-01-13T08:14:57.207Z,0.32
2019-01-13T08:17:24.740Z,0.20
2019-01-13T08:19:52.206Z,0.19
2019-01-13T08:22:19.834Z,-0.14
2019-01-13T08:24:47.350Z,0.17
2019-01-13T08:27:14.883Z,0.41
2019-01-13T08:29:42.334Z,0.48
2019-01-13T08:32:10.049Z,0.40
2019-01-13T08:34:37.770Z,0.31
2019-01-13T08:37:05.389Z,0.26
2019-01-13T08:39:32.887Z,0.28
2019-01-13T08:42:00.531Z,0.41
2019-01-13T08:44:28.131Z,0.34
2019-01-13T08:46:55.770Z,0.29
2019-01-13T08:49:23.261Z,0.33
2019-01-13T08:51:50.687Z,0.36
2019-01-13T08:54:18.268Z,0.35
2019-01-13T08:56:45.831Z,0.62
2019-01-13T08:59:13.568Z,0.75
2019-01-13T09:01:41.211Z,1.20
2019-01-13T09:04:09.240Z,1.21
2019-01-13T09:06:37.083Z,0.95
2019-01-13T09:09:08.644Z,0.91
2019-01-13T09:11:36.272Z,0.80
2019-01-13T09:14:04.027Z,0.23
2019-01-13T09:16:31.606Z,0.34
2019-01-13T09:18:59.290Z,0.50
2019-01-13T09:21:26.723Z,0.77
2019-01-13T09:23:54.342Z,0.94
2019-01-13T09:26:22.002Z,1.00
2019-01-13T09:28:49.521Z,1.11
2019-01-13T09:31:17.392Z,1.52
2019-01-13T09:33:44.999Z,1.52
2019-01-13T09:36:12.725Z,2.01
2019-01-13T09:38:40.288Z,2.56
2019-01-13T09:41:07.965Z,2.66
2019-01-13T09:43:35.733Z,2.83
2019-01-13T09:46:03.509Z,3.04
2019-01-13T09:48:31.244Z,3.34
2019-01-13T09:50:59.053Z,3.11
2019-01-13T09:53:26.606Z,2.71
2019-01-13T09:55:54.040Z,3.44
2019-01-13T09:58:21.665Z,3.26
2019-01-13T10:00:49.684Z,3.48
2019-01-13T10:03:17.224Z,3.77
2019-01-13T10:05:44.950Z,3.87
2019-01-13T10:08:13.303Z,4.09
2019-01-13T10:10:40.682Z,4.22
2019-01-13T10:13:08.288Z,4.00
2019-01-13T10:15:35.867Z,4.03
2019-01-13T10:18:03.400Z,3.74
2019-01-13T10:20:30.896Z,3.38
2019-01-13T10:22:58.667Z,3.18
2019-01-13T10:25:26.266Z,3.48
2019-01-13T10:27:54.168Z,3.40
2019-01-13T10:30:24.850Z,3.20
2019-01-13T10:32:55.789Z,2.97
2019-01-13T10:35:23.094Z,2.86
2019-01-13T10:37:51.623Z,2.54
2019-01-13T10:40:20.914Z,2.92
2019-01-13T10:42:48.577Z,2.87
2019-01-13T10:45:16.650Z,3.06
2019-01-13T10:47:44.638Z,2.97
2019-01-13T10:50:17.699Z,2.94
2019-01-13T10:52:45.576Z,3.02
2019-01-13T10:55:14.153Z,3.10
2019-01-13T10:57:41.684Z,3.24
2019-01-13T11:00:19.981Z,3.27
2019-01-13T11:02:47.563Z,3.31
2019-01-13T11:05:15.252Z,3.46
2019-01-13T11:07:43.002Z,3.21
2019-01-13T11:10:12.075Z,3.38
2019-01-13T11:12:39.794Z,3.65
2019-01-13T11:15:08.027Z,3.49
2019-01-13T11:17:35.791Z,3.46
2019-01-13T11:20:06.103Z,3.57
2019-01-13T11:22:33.836Z,3.41
2019-01-13T11:25:01.497Z,3.68
2019-01-13T11:27:29.073Z,3.77
2019-01-13T11:29:56.878Z,3.92
2019-01-13T11:32:24.581Z,3.93
2019-01-13T11:34:52.048Z,3.87
2019-01-13T11:37:19.532Z,3.85
2019-01-13T11:39:47.025Z,3.78
2019-01-13T11:42:14.644Z,3.64
2019-01-13T11:44:42.264Z,3.37
2019-01-13T11:47:09.721Z,3.19
2019-01-13T11:49:38.562Z,3.20
2019-01-13T11:52:06.277Z,3.47
2019-01-13T11:54:34.025Z,3.21
2019-01-13T11:57:01.639Z,2.97
2019-01-13T11:59:29.277Z,2.80
2019-01-13T12:01:57.201Z,2.65
2019-01-13T12:04:24.701Z,2.56
2019-01-13T12:06:52.409Z,2.50
2019-01-13T12:09:20.078Z,2.36
2019-01-13T12:11:47.672Z,2.27
2019-01-13T12:14:15.158Z,2.24
2019-01-13T12:16:42.917Z,2.20
2019-01-13T12:19:10.592Z,2.24
2019-01-13T12:21:38.182Z,2.44
2019-01-13T12:24:05.948Z,2.69
2019-01-13T12:26:33.524Z,2.58
2019-01-13T12:29:01.104Z,2.51
2019-01-13T12:31:28.561Z,2.54
2019-01-13T12:33:56.111Z,2.51
2019-01-13T12:36:23.630Z,2.53
2019-01-13T12:38:51.057Z,2.51
2019-01-13T12:41:18.587Z,2.47
2019-01-13T12:43:46.255Z,2.65
2019-01-13T12:46:13.853Z,2.68
2019-01-13T12:48:41.249Z,2.68
2019-01-13T12:51:08.713Z,2.70
2019-01-13T12:53:36.267Z,2.82
2019-01-13T12:56:03.835Z,2.90
2019-01-13T12:58:31.386Z,2.79
2019-01-13T13:00:58.881Z,2.81
2019-01-13T13:03:31.618Z,2.96
2019-01-13T13:05:55.971Z,3.08
2019-01-13T13:08:23.852Z,3.01
2019-01-13T13:10:54.536Z,3.07
2019-01-13T13:13:22.202Z,3.10
2019-01-13T13:15:50.071Z,3.20
2019-01-13T13:18:17.541Z,3.09
2019-01-13T13:20:45.251Z,3.05
2019-01-13T13:23:12.836Z,3.03
2019-01-13T13:25:40.439Z,2.96
2019-01-13T13:28:08.601Z,3.11
2019-01-13T13:30:36.222Z,3.38
2019-01-13T13:33:03.890Z,3.70
2019-01-13T13:35:31.521Z,3.54
2019-01-13T13:37:59.192Z,3.54
2019-01-13T13:40:27.393Z,3.39
2019-01-13T13:42:55.373Z,3.05
2019-01-13T13:45:23.011Z,3.08
2019-01-13T13:47:51.142Z,3.21
2019-01-13T13:50:21.553Z,3.14
2019-01-13T13:52:49.534Z,2.93
2019-01-13T13:55:17.211Z,3.04
2019-01-13T13:57:45.076Z,2.79
2019-01-13T14:00:19.118Z,2.71
2019-01-13T14:02:46.714Z,2.79
2019-01-13T14:05:14.362Z,2.60
2019-01-13T14:07:42.014Z,2.50
2019-01-13T14:10:14.523Z,2.38
2019-01-13T14:12:42.175Z,2.28
2019-01-13T14:15:09.913Z,2.26
2019-01-13T14:17:37.517Z,2.18
2019-01-13T14:20:08.277Z,2.20
2019-01-13T14:22:35.966Z,2.23
2019-01-13T14:25:04.519Z,2.20
2019-01-13T14:27:32.304Z,2.31
2019-01-13T14:29:59.957Z,2.22
2019-01-13T14:32:27.666Z,2.41
2019-01-13T14:34:55.386Z,2.32
2019-01-13T14:37:23.050Z,2.36
2019-01-13T14:39:50.989Z,2.41
2019-01-13T14:42:18.741Z,2.38
2019-01-13T14:44:46.238Z,2.39
2019-01-13T14:47:13.839Z,2.22
2019-01-13T14:49:41.825Z,2.10
2019-01-13T14:52:09.580Z,2.04
2019-01-13T14:54:37.167Z,1.98
2019-01-13T14:57:04.815Z,1.96
2019-01-13T14:59:32.364Z,1.93
2019-01-13T15:01:59.833Z,1.97
2019-01-13T15:04:27.268Z,2.11
2019-01-13T15:06:55.108Z,2.18
2019-01-13T15:09:22.813Z,2.16
2019-01-13T15:11:50.317Z,2.01
2019-01-13T15:14:18.060Z,1.94
2019-01-13T15:16:45.540Z,1.85
2019-01-13T15:19:13.203Z,1.90
2019-01-13T15:21:40.990Z,1.94
2019-01-13T15:24:08.471Z,1.95
2019-01-13T15:26:35.911Z,1.99
2019-01-13T15:29:03.699Z,2.09
2019-01-13T15:31:31.283Z,2.31
2019-01-13T15:33:58.676Z,2.14
2019-01-13T15:36:26.231Z,2.20
2019-01-13T15:38:53.859Z,2.19
2019-01-13T15:41:21.503Z,1.97
2019-01-13T15:43:49.215Z,1.96
2019-01-13T15:46:16.802Z,1.83
2019-01-13T15:48:44.588Z,1.78
2019-01-13T15:51:12.503Z,1.72
2019-01-13T15:53:40.332Z,1.58
2019-01-13T15:56:08.263Z,1.56
2019-01-13T15:58:35.951Z,1.75
2019-01-13T16:01:03.636Z,1.71
2019-01-13T16:03:31.064Z,1.71
2019-01-13T16:05:59.367Z,1.73
2019-01-13T16:08:27.417Z,1.96
2019-01-13T16:10:55.030Z,2.13
2019-01-13T16:13:22.613Z,2.27
2019-01-13T16:15:50.261Z,2.23
2019-01-13T16:18:17.789Z,2.32
2019-01-13T16:20:45.644Z,2.53
2019-01-13T16:23:14.069Z,2.70
2019-01-13T16:25:41.576Z,2.85
2019-01-13T16:28:09.074Z,2.92
2019-01-13T16:30:36.832Z,2.77
2019-01-13T16:33:05.799Z,2.89
2019-01-13T16:35:33.399Z,2.66
2019-01-13T16:38:01.243Z,2.39
2019-01-13T16:40:29.072Z,2.02
2019-01-13T16:42:56.678Z,1.81
2019-01-13T16:45:26.741Z,2.39
2019-01-13T16:47:54.659Z,2.67
2019-01-13T16:50:24.666Z,2.84
2019-01-13T16:52:54.261Z,2.86
2019-01-13T16:55:23.210Z,2.92
2019-01-13T16:57:50.815Z,2.94
2019-01-13T17:00:20.650Z,3.02
2019-01-13T17:02:48.380Z,3.17
2019-01-13T17:05:18.063Z,3.14
2019-01-13T17:07:45.908Z,3.26
2019-01-13T17:10:15.914Z,3.12
2019-01-13T17:12:43.678Z,3.05
2019-01-13T17:15:13.152Z,3.17
2019-01-13T17:17:40.595Z,3.13
2019-01-13T17:20:12.491Z,2.97
2019-01-13T17:22:40.833Z,2.98
2019-01-13T17:25:09.422Z,2.94
2019-01-13T17:27:36.938Z,3.16
2019-01-13T17:30:07.117Z,2.94
2019-01-13T17:32:34.964Z,2.82
2019-01-13T17:35:04.961Z,2.66
2019-01-13T17:37:32.518Z,2.46
2019-01-13T17:40:01.277Z,2.36
2019-01-13T17:42:29.113Z,2.18
2019-01-13T17:44:57.100Z,2.24
2019-01-13T17:47:24.601Z,2.18
2019-01-13T17:49:52.184Z,2.18
2019-01-13T17:52:19.889Z,2.25
2019-01-13T17:54:48.332Z,2.31
2019-01-13T17:57:16.636Z,2.32
2019-01-13T17:59:44.472Z,2.34
2019-01-13T18:02:12.431Z,2.23
2019-01-13T18:04:43.282Z,2.32
2019-01-13T18:07:09.532Z,2.22
2019-01-13T18:09:37.291Z,2.14
2019-01-13T18:12:05.143Z,2.11
2019-01-13T18:14:32.916Z,2.06
2019-01-13T18:17:06.396Z,2.34
2019-01-13T18:19:30.036Z,2.68
2019-01-13T18:21:57.511Z,2.60
2019-01-13T18:24:25.391Z,2.44
2019-01-13T18:26:53.280Z,2.42
2019-01-13T18:29:20.808Z,2.53
2019-01-13T18:31:48.673Z,2.67
2019-01-13T18:34:16.266Z,2.47
2019-01-13T18:36:44.027Z,2.34
2019-01-13T18:39:11.590Z,2.29
2019-01-13T18:41:39.195Z,2.24
2019-01-13T18:44:07.930Z,2.10
2019-01-13T18:46:35.756Z,2.07
2019-01-13T18:49:03.714Z,1.95
2019-01-13T18:51:31.456Z,1.82
2019-01-13T18:53:59.006Z,1.76
2019-01-13T18:56:27.246Z,1.62
2019-01-13T18:58:54.775Z,1.56
2019-01-13T19:01:22.413Z,1.53
2019-01-13T19:03:49.989Z,1.47
2019-01-13T19:06:17.746Z,1.49
2019-01-13T19:08:45.256Z,1.54
2019-01-13T19:11:22.363Z,1.48
2019-01-13T19:14:40.935Z,1.38
2019-01-13T19:17:11.057Z,1.36
2019-01-13T19:19:50.014Z,1.34
2019-01-13T19:22:19.132Z,1.29
2019-01-13T19:24:49.325Z,1.33
2019-01-13T19:27:17.177Z,1.40
2019-01-13T19:29:44.850Z,1.38
2019-01-13T19:32:12.910Z,1.53
2019-01-13T19:34:40.574Z,1.53
2019-01-13T19:37:08.391Z,1.38
2019-01-13T19:39:36.161Z,1.26
2019-01-13T19:42:03.796Z,1.09
2019-01-13T19:44:31.341Z,1.09
2019-01-13T19:46:58.830Z,1.20
2019-01-13T19:49:26.456Z,1.17
2019-01-13T19:51:54.047Z,1.01
2019-01-13T19:54:24.378Z,0.95
2019-01-13T19:56:51.889Z,0.81
2019-01-13T19:59:20.799Z,0.90
2019-01-13T20:01:48.718Z,0.91
2019-01-13T20:04:16.449Z,1.24
2019-01-13T20:06:44.211Z,1.21
2019-01-13T20:09:11.798Z,1.12
2019-01-13T20:11:41.238Z,0.93
2019-01-13T20:14:08.959Z,0.89
2019-01-13T20:16:36.395Z,0.76
2019-01-13T20:19:04.161Z,0.69
2019-01-13T20:21:31.668Z,0.53
2019-01-13T20:23:59.259Z,0.47
2019-01-13T20:26:28.294Z,0.37
2019-01-13T20:28:56.109Z,0.28
2019-01-13T20:31:23.548Z,-0.03
2019-01-13T20:33:51.495Z,0.11
2019-01-13T20:36:19.093Z,0.16
2019-01-13T20:38:46.805Z,0.07
2019-01-13T20:41:14.441Z,0.01
2019-01-13T20:43:42.041Z,0.08
2019-01-13T20:46:09.491Z,0.03
2019-01-13T20:48:37.066Z,0.10
2019-01-13T20:51:04.913Z,0.01
2019-01-13T20:53:32.574Z,0.09
2019-01-13T20:56:00.317Z,0.04
2019-01-13T20:58:27.900Z,0.22
2019-01-13T21:00:55.666Z,0.27
2019-01-13T21:03:23.453Z,0.30
2019-01-13T21:05:51.257Z,0.36
2019-01-13T21:08:19.430Z,-0.11
2019-01-13T21:10:47.021Z,0.15
2019-01-13T21:13:14.756Z,0.24
2019-01-13T21:15:42.333Z,0.44
2019-01-13T21:18:09.957Z,0.60
2019-01-13T21:20:37.546Z,0.65
2019-01-13T21:23:05.166Z,0.65
2019-01-13T21:25:33.740Z,0.60
2019-01-13T21:28:02.354Z,0.53
2019-01-13T21:30:31.125Z,0.51
2019-01-13T21:32:58.993Z,0.73
2019-01-13T21:35:33.526Z,0.54
2019-01-13T21:37:56.520Z,0.51
2019-01-13T21:40:25.109Z,0.42
2019-01-13T21:42:52.884Z,0.36
2019-01-13T21:45:21.017Z,0.42
2019-01-13T21:47:48.702Z,0.42
2019-01-13T21:50:21.474Z,0.30
2019-01-13T21:52:49.299Z,0.44
2019-01-13T21:55:17.493Z,0.57
2019-01-13T21:57:45.572Z,0.26
2019-01-13T22:00:19.270Z,0.25
2019-01-13T22:02:47.133Z,0.48
2019-01-13T22:05:14.844Z,0.58
2019-01-13T22:07:42.801Z,0.38
2019-01-13T22:10:13.653Z,0.60
2019-01-13T22:12:41.421Z,0.55
2019-01-13T22:15:10.879Z,0.60
2019-01-13T22:17:38.812Z,0.75
2019-01-13T22:20:08.599Z,0.78
2019-01-13T22:22:36.157Z,0.92
2019-01-13T22:25:04.844Z,0.68
2019-01-13T22:27:32.332Z,0.70
2019-01-13T22:29:59.831Z,0.74
2019-01-13T22:32:27.267Z,1.19
2019-01-13T22:34:54.735Z,1.16
2019-01-13T22:37:22.231Z,1.32
2019-01-13T22:39:49.685Z,1.30
2019-01-13T22:42:17.241Z,0.92
2019-01-13T22:44:44.704Z,0.91
2019-01-13T22:47:12.215Z,1.17
2019-01-13T22:49:39.705Z,0.78
2019-01-13T22:52:07.284Z,0.94
2019-01-13T22:54:34.802Z,0.91
2019-01-13T22:57:02.346Z,0.95
2019-01-13T22:59:29.962Z,0.97
2019-01-13T23:01:57.529Z,1.06
2019-01-13T23:04:25.195Z,1.14
2019-01-13T23:06:52.767Z,0.81
2019-01-13T23:09:20.435Z,0.52
2019-01-13T23:11:47.975Z,0.68
2019-01-13T23:14:15.602Z,0.52
2019-01-13T23:16:43.406Z,1.02
2019-01-13T23:19:10.972Z,0.66
2019-01-13T23:21:38.570Z,0.55
2019-01-13T23:24:06.230Z,0.55
2019-01-13T23:26:33.655Z,0.32
2019-01-13T23:29:01.205Z,0.50
2019-01-13T23:31:28.694Z,0.67
2019-01-13T23:33:56.084Z,0.84
2019-01-13T23:36:23.661Z,0.70
2019-01-13T23:38:51.145Z,0.38
2019-01-13T23:41:18.769Z,0.23
2019-01-13T23:43:46.418Z,0.03
2019-01-13T23:46:14.119Z,-0.28
2019-01-13T23:48:41.674Z,-0.39
2019-01-13T23:51:09.540Z,-0.35
2019-01-13T23:53:37.044Z,0.03
2019-01-13T23:56:04.623Z,0.13
2019-01-13T23:58:32.130Z,0.04
